Terminal Aerodrome Forecast
Issued by NWS

Home | Current Version | Previous Version | Graphics & Text | Print | Product List | Glossary On
Versions: 1 2 3 4 5 6 7 8 9 10 11 12 13 14 15 16 17 18 19
000
FTUS43 KBIS 191700
TAFMOT
TAF
KMOT 191739Z 1918/2018 27015G25KT P6SM SCT120
     FM192300 31015KT P6SM SCT080
     FM200300 30008KT P6SM BKN090
     FM201300 26011KT P6SM SCT100
     FM201600 30017G25KT P6SM VCSH SCT110=

USA.gov is the U.S. government's official web portal to all federal, state and local government web resources and services.